Time;durP1;ratioP1;P1;durP2;ratioP2;P2;SDS_P1;SDS_P2;PMS_P1;PMS_P2;Temp;Humidity;BMP_temperature;BMP_pressure;BME280_temperature;BME280_humidity;BME280_pressure;Samples;Min_cycle;Max_cycle;Signal;HPM_P1;HPM_P2
2022/01/12 00:00:04;;;;;;;141.30;35.33;;;3.50;99.90;;;;;;5017344;28;20053;-94
2022/01/12 00:02:29;;;;;;;150.65;36.88;;;3.10;99.90;;;;;;5019608;28;20089;-94
2022/01/12 00:04:55;;;;;;;126.57;37.30;;;3.20;99.90;;;;;;5035554;28;20139;-95
2022/01/12 00:07:21;;;;;;;140.45;37.55;;;3.30;99.90;;;;;;5035553;28;20064;-94
2022/01/12 00:09:46;;;;;;;135.55;36.58;;;3.30;99.90;;;;;;5019063;28;20049;-94
2022/01/12 00:12:12;;;;;;;195.32;39.70;;;3.20;99.90;;;;;;5019105;28;20054;-94
2022/01/12 00:14:37;;;;;;;208.32;41.55;;;3.30;99.90;;;;;;5019118;28;20491;-95
2022/01/12 00:17:03;;;;;;;147.25;37.35;;;3.20;99.90;;;;;;5035048;28;20050;-94
2022/01/12 00:19:29;;;;;;;134.50;35.95;;;3.20;99.90;;;;;;5018640;28;20064;-95
2022/01/12 00:21:56;;;;;;;188.68;39.67;;;3.30;99.90;;;;;;5035718;28;20140;-94
2022/01/12 00:24:25;;;;;;;246.57;41.70;;;3.20;99.90;;;;;;5035265;28;20049;-93
2022/01/12 00:33:08;;;;;;;148.68;34.03;;;3.10;99.90;;;;;;5019015;28;20087;-94
2022/01/12 00:35:16;;;;;;;240.00;43.30;;;3.30;99.90;;;;;;5034746;28;20141;-93
2022/01/12 00:37:42;;;;;;;182.13;40.05;;;3.30;99.90;;;;;;5034894;28;20058;-94
2022/01/12 00:40:08;;;;;;;162.93;39.80;;;3.30;99.90;;;;;;5018057;28;20057;-95
2022/01/12 00:42:34;;;;;;;201.43;38.67;;;3.30;99.90;;;;;;5034698;28;20063;-93
2022/01/12 00:45:02;;;;;;;182.75;39.92;;;3.30;99.90;;;;;;5034856;28;20140;-93
2022/01/12 00:47:28;;;;;;;216.05;40.00;;;3.30;99.90;;;;;;5018547;28;20497;-94
2022/01/12 00:49:53;;;;;;;181.25;39.67;;;3.50;99.90;;;;;;5018391;28;20049;-95
2022/01/12 00:52:19;;;;;;;180.65;39.35;;;3.30;99.90;;;;;;5018054;28;20056;-94
2022/01/12 00:54:45;;;;;;;193.38;39.05;;;3.50;99.90;;;;;;5034647;28;20060;-93
2022/01/12 00:57:11;;;;;;;196.90;39.55;;;3.60;99.90;;;;;;5034768;28;20064;-93
2022/01/12 00:59:36;;;;;;;146.57;38.30;;;3.40;99.90;;;;;;5018075;28;20410;-93
2022/01/12 01:02:02;;;;;;;201.23;39.72;;;3.30;99.90;;;;;;5034317;28;20050;-95
2022/01/12 01:04:28;;;;;;;166.95;38.65;;;3.30;99.90;;;;;;5017817;28;20063;-95
2022/01/12 01:06:55;;;;;;;165.70;38.63;;;3.50;99.90;;;;;;5018079;28;20148;-94
2022/01/12 01:09:22;;;;;;;153.27;37.10;;;3.40;99.90;;;;;;5034194;28;20057;-94
2022/01/12 01:11:48;;;;;;;163.25;39.17;;;3.60;99.90;;;;;;5017967;28;20057;-94
2022/01/12 01:14:21;;;;;;;212.40;41.00;;;3.40;99.90;;;;;;5018225;28;20454;-94
2022/01/12 01:17:05;;;;;;;180.60;37.72;;;3.40;99.90;;;;;;5017983;28;20494;-94
2022/01/12 01:28:09;;;;;;;162.40;38.22;;;3.40;99.90;;;;;;4938984;29;20051;-94
2022/01/12 01:30:36;;;;;;;144.15;36.03;;;3.40;99.90;;;;;;4938261;29;20115;-93
2022/01/12 01:33:08;;;;;;;161.07;37.88;;;3.40;99.90;;;;;;4938568;29;20086;-94
2022/01/12 01:35:38;;;;;;;201.38;41.75;;;3.40;99.90;;;;;;4938289;29;20087;-93
2022/01/12 01:38:05;;;;;;;222.27;40.55;;;3.40;99.90;;;;;;4939006;29;20063;-94
2022/01/12 01:40:33;;;;;;;176.88;37.80;;;3.40;99.90;;;;;;4938782;29;20072;-94
2022/01/12 01:54:07;;;;;;;227.02;41.92;;;3.40;99.90;;;;;;4954325;28;20583;-94
2022/01/12 01:56:34;;;;;;;209.90;41.33;;;3.40;99.90;;;;;;4938623;29;20433;-94
2022/01/12 01:59:00;;;;;;;204.65;41.42;;;3.50;99.90;;;;;;4969846;28;20196;-95
2022/01/12 02:01:26;;;;;;;317.92;46.08;;;3.50;99.90;;;;;;5002579;28;20144;-94
2022/01/12 02:03:54;;;;;;;260.30;44.30;;;3.40;99.90;;;;;;5033178;28;20056;-94
2022/01/12 02:06:19;;;;;;;281.83;44.97;;;3.40;99.90;;;;;;5016891;28;20176;-93
2022/01/12 02:08:45;;;;;;;287.58;45.13;;;3.50;99.90;;;;;;5016865;28;20093;-94
2022/01/12 02:11:11;;;;;;;331.48;47.90;;;3.50;99.90;;;;;;5033455;28;20061;-94
2022/01/12 02:13:36;;;;;;;341.92;46.80;;;3.80;99.90;;;;;;5017010;28;20053;-94
2022/01/12 02:16:02;;;;;;;355.33;47.05;;;3.50;99.90;;;;;;5033588;28;20054;-94
2022/01/12 02:40:28;;;;;;;401.55;50.17;;;3.60;99.90;;;;;;5032510;28;20430;-94
2022/01/12 02:54:03;;;;;;;505.95;52.60;;;3.60;99.90;;;;;;5032606;28;20046;-93
2022/01/12 02:56:33;;;;;;;505.80;52.80;;;3.60;99.90;;;;;;5015797;28;20064;-95
2022/01/12 02:59:00;;;;;;;491.63;55.15;;;3.60;99.90;;;;;;5016068;28;20049;-94
2022/01/12 03:04:02;;;;;;;522.08;55.88;;;3.60;99.90;;;;;;5032613;28;20045;-94
2022/01/12 03:06:31;;;;;;;485.35;52.78;;;3.60;99.90;;;;;;5032434;28;20061;-94
2022/01/12 03:08:59;;;;;;;529.92;55.08;;;4.00;99.90;;;;;;5016269;28;20077;-94
2022/01/12 03:11:27;;;;;;;607.40;58.47;;;3.80;99.90;;;;;;5032997;28;20442;-93
2022/01/12 03:13:53;;;;;;;578.40;57.65;;;3.60;99.90;;;;;;5016545;28;20088;-94
2022/01/12 03:16:22;;;;;;;470.77;52.20;;;3.70;99.90;;;;;;5016212;28;20061;-94
2022/01/12 03:18:56;;;;;;;474.48;53.70;;;3.60;99.90;;;;;;5016220;28;20057;-94
2022/01/12 03:21:25;;;;;;;443.55;50.92;;;3.70;99.90;;;;;;5016110;28;20099;-94
2022/01/12 03:23:53;;;;;;;547.40;55.40;;;4.00;99.90;;;;;;5015703;28;20069;-95
2022/01/12 03:26:19;;;;;;;566.10;56.58;;;4.10;99.90;;;;;;5032672;28;20053;-94
2022/01/12 03:28:52;;;;;;;552.97;56.28;;;4.00;99.90;;;;;;5032722;28;20395;-94
2022/01/12 03:31:21;;;;;;;462.73;51.83;;;3.70;99.90;;;;;;5015648;28;20053;-94
2022/01/12 03:39:06;;;;;;;516.92;52.75;;;3.70;99.90;;;;;;5036127;28;20060;-94
2022/01/12 03:41:34;;;;;;;;;;;3.70;99.90;;;;;;5036997;28;20092;-93
2022/01/12 03:44:01;;;;;;;544.88;54.70;;;4.00;99.90;;;;;;5036178;28;19921;-93
2022/01/12 03:46:32;;;;;;;596.10;57.30;;;3.70;99.90;;;;;;5036340;28;20084;-93
2022/01/12 03:48:58;;;;;;;486.65;51.55;;;3.70;99.90;;;;;;5036184;28;20487;-93
2022/01/12 03:51:24;;;;;;;526.67;53.67;;;3.70;99.90;;;;;;5036374;28;20064;-94
2022/01/12 03:53:50;;;;;;;450.80;51.55;;;3.70;99.90;;;;;;5036206;28;20163;-95
2022/01/12 03:56:16;;;;;;;436.33;50.05;;;3.70;99.90;;;;;;5036445;28;20071;-94
2022/01/12 03:58:43;;;;;;;488.27;54.78;;;3.70;99.90;;;;;;5019427;28;20085;-94
2022/01/12 04:01:09;;;;;;;426.02;49.53;;;3.70;99.90;;;;;;5019358;28;20053;-94
2022/01/12 04:03:39;;;;;;;398.63;48.42;;;3.80;99.90;;;;;;5019481;28;20049;-93
2022/01/12 04:08:50;;;;;;;497.00;52.53;;;4.10;99.90;;;;;;5035905;28;20061;-94
2022/01/12 04:11:15;;;;;;;636.35;60.40;;;3.80;99.90;;;;;;5035615;28;20538;-94
2022/01/12 04:13:43;;;;;;;488.17;53.60;;;3.90;99.90;;;;;;5019228;28;20054;-94
2022/01/12 04:16:09;;;;;;;445.45;51.17;;;3.70;99.90;;;;;;5036100;28;20392;-93
2022/01/12 04:18:35;;;;;;;483.80;51.95;;;3.80;99.90;;;;;;5018937;28;20055;-95
2022/01/12 04:21:04;;;;;;;321.83;46.40;;;4.00;99.90;;;;;;5035432;28;20084;-93
2022/01/12 04:23:30;;;;;;;361.00;48.10;;;4.10;99.90;;;;;;5035665;28;20136;-94
2022/01/12 04:25:58;;;;;;;390.30;48.65;;;3.70;99.90;;;;;;5019055;28;20049;-94
2022/01/12 04:28:25;;;;;;;529.55;62.22;;;3.80;99.90;;;;;;5018898;28;20057;-94
2022/01/12 04:30:53;;;;;;;338.58;46.97;;;3.80;99.90;;;;;;5019004;28;20126;-94
2022/01/12 04:33:19;;;;;;;463.35;50.10;;;3.90;99.90;;;;;;5018695;28;20053;-94
2022/01/12 04:35:52;;;;;;;397.38;50.03;;;3.80;99.90;;;;;;5018398;28;20072;-95
2022/01/12 04:38:20;;;;;;;569.63;60.72;;;3.80;99.90;;;;;;5018971;28;20053;-94
2022/01/12 04:40:46;;;;;;;432.95;49.45;;;3.80;99.90;;;;;;5034783;28;20057;-93
2022/01/12 04:43:13;;;;;;;403.65;48.13;;;4.20;99.90;;;;;;5018829;28;20083;-93
2022/01/12 04:50:43;;;;;;;342.50;46.65;;;3.80;99.90;;;;;;5035369;28;20065;-95
2022/01/12 04:53:09;;;;;;;431.92;49.42;;;3.80;99.90;;;;;;5034826;28;20058;-94
2022/01/12 04:55:35;;;;;;;389.83;45.85;;;4.30;99.90;;;;;;5018139;28;20068;-94
2022/01/12 04:58:01;;;;;;;248.88;41.78;;;4.00;99.90;;;;;;5034779;28;20057;-93
2022/01/12 05:00:29;;;;;;;301.20;42.15;;;3.70;99.90;;;;;;5034357;28;20152;-94
2022/01/12 05:13:40;;;;;;;348.60;43.72;;;3.70;99.90;;;;;;5034729;28;20532;-94
2022/01/12 05:16:06;;;;;;;296.42;41.00;;;3.70;99.90;;;;;;5018197;28;20132;-94
2022/01/12 05:18:33;;;;;;;283.98;40.22;;;3.60;99.90;;;;;;5017936;28;20053;-93
2022/01/12 05:21:00;;;;;;;540.38;46.60;;;3.40;99.90;;;;;;5017934;28;20060;-94
2022/01/12 05:23:27;;;;;;;307.70;40.17;;;3.60;99.90;;;;;;5018050;28;20089;-94
2022/01/12 05:25:53;;;;;;;245.50;38.20;;;3.10;99.90;;;;;;5034685;28;20049;-94
2022/01/12 05:28:20;;;;;;;325.90;41.92;;;3.10;99.90;;;;;;5018111;28;20060;-94
2022/01/12 05:30:47;;;;;;;240.93;40.30;;;2.90;99.90;;;;;;5018033;28;20057;-94
2022/01/12 05:33:13;;;;;;;355.92;41.78;;;2.80;99.90;;;;;;5017616;28;20053;-94
2022/01/12 05:35:39;;;;;;;1131.00;92.53;;;2.70;99.90;;;;;;5033583;28;20111;-93
2022/01/12 05:38:08;;;;;;;321.40;41.40;;;2.60;99.90;;;;;;5034653;28;20115;-94
2022/01/12 05:40:34;;;;;;;390.85;43.33;;;2.50;99.90;;;;;;5017754;28;20108;-93
2022/01/12 05:43:01;;;;;;;365.95;43.03;;;2.00;99.90;;;;;;5017740;28;20100;-94
2022/01/12 05:45:28;;;;;;;377.45;41.45;;;2.30;99.90;;;;;;5017764;28;20049;-93
2022/01/12 05:50:22;;;;;;;333.38;43.00;;;2.20;99.90;;;;;;5034061;28;20049;-94
2022/01/12 05:52:47;;;;;;;356.00;42.45;;;2.20;99.90;;;;;;5017095;28;20057;-95
2022/01/12 05:55:14;;;;;;;412.77;44.25;;;2.20;99.90;;;;;;5033531;28;20065;-94
2022/01/12 05:57:40;;;;;;;427.90;44.25;;;2.30;99.90;;;;;;5016468;28;20053;-94
2022/01/12 06:00:09;;;;;;;375.98;41.67;;;2.20;99.90;;;;;;5016994;28;20127;-93
2022/01/12 06:02:35;;;;;;;395.52;41.33;;;2.20;99.90;;;;;;5033473;28;20053;-94
2022/01/12 06:05:02;;;;;;;431.05;44.78;;;2.30;99.90;;;;;;5017285;28;20057;-93
2022/01/12 06:12:05;;;;;;;366.40;40.85;;;2.20;99.90;;;;;;5034237;28;20040;-94
2022/01/12 06:14:31;;;;;;;353.25;41.97;;;2.30;99.90;;;;;;5016891;28;20054;-94
2022/01/12 06:16:56;;;;;;;297.70;42.92;;;2.40;99.90;;;;;;5033874;28;20048;-93
2022/01/12 06:19:22;;;;;;;404.27;46.50;;;2.50;99.90;;;;;;5017171;28;20051;-94
2022/01/12 06:22:27;;;;;;;315.77;42.78;;;2.60;99.90;;;;;;5016920;28;20049;-94
2022/01/12 06:24:54;;;;;;;268.40;38.75;;;2.70;99.90;;;;;;5017063;28;20091;-94
2022/01/12 06:27:22;;;;;;;252.27;38.88;;;2.80;99.90;;;;;;5033994;28;20046;-94
2022/01/12 06:30:03;;;;;;;227.82;37.17;;;3.20;99.90;;;;;;5017092;28;20162;-95
2022/01/12 06:32:30;;;;;;;220.38;36.88;;;2.90;99.90;;;;;;5016816;28;20061;-94
2022/01/12 06:34:56;;;;;;;383.25;40.10;;;2.90;99.90;;;;;;5016457;28;20058;-94
2022/01/12 06:37:22;;;;;;;292.88;38.75;;;2.90;99.90;;;;;;5033345;28;20079;-94
2022/01/12 06:39:48;;;;;;;325.63;40.78;;;3.20;99.90;;;;;;5016833;28;20045;-94
2022/01/12 06:42:13;;;;;;;360.17;40.95;;;2.90;99.90;;;;;;5016935;28;20059;-93
2022/01/12 06:44:39;;;;;;;251.85;37.38;;;2.90;99.90;;;;;;5017187;28;20049;-94
2022/01/12 06:47:05;;;;;;;330.73;38.70;;;2.90;99.90;;;;;;5016517;28;20092;-95
2022/01/12 06:49:31;;;;;;;247.02;35.00;;;2.90;99.90;;;;;;5016899;28;20053;-94
2022/01/12 06:52:00;;;;;;;256.88;35.00;;;2.90;99.90;;;;;;5017146;28;20063;-94
2022/01/12 06:54:26;;;;;;;239.00;34.00;;;3.00;99.90;;;;;;5017046;28;20060;-94
2022/01/12 06:56:52;;;;;;;203.25;33.97;;;2.80;99.90;;;;;;5033322;28;20441;-94
2022/01/12 06:59:17;;;;;;;354.42;38.72;;;2.80;99.90;;;;;;5017034;28;20055;-95
2022/01/12 07:01:44;;;;;;;318.63;37.92;;;2.80;99.90;;;;;;5016695;28;20045;-94
2022/01/12 07:04:10;;;;;;;221.15;34.08;;;2.90;99.90;;;;;;5016790;28;20064;-94
2022/01/12 07:06:48;;;;;;;230.05;33.38;;;2.60;99.90;;;;;;5016450;28;20157;-94
2022/01/12 07:09:14;;;;;;;275.52;34.22;;;2.70;99.90;;;;;;5019500;28;20053;-94
2022/01/12 07:11:41;;;;;;;228.65;31.83;;;2.50;99.90;;;;;;5020936;28;20487;-94
2022/01/12 07:14:07;;;;;;;152.88;30.70;;;2.50;99.90;;;;;;5020994;28;20049;-94
2022/01/12 07:16:33;;;;;;;170.35;30.80;;;2.70;99.90;;;;;;5037546;28;20517;-94
2022/01/12 07:18:59;;;;;;;213.80;32.05;;;2.40;99.90;;;;;;5020293;28;20148;-95
2022/01/12 07:21:29;;;;;;;287.38;33.05;;;2.30;99.90;;;;;;5020920;28;20536;-95
2022/01/12 07:24:13;;;;;;;317.92;31.38;;;2.50;99.90;;;;;;5037631;28;20061;-94
2022/01/12 07:26:38;;;;;;;444.65;35.88;;;2.10;99.90;;;;;;5020521;28;20139;-95
2022/01/12 07:29:04;;;;;;;321.13;31.67;;;2.00;99.90;;;;;;5020507;28;20050;-95
2022/01/12 07:31:30;;;;;;;367.33;33.30;;;1.80;99.90;;;;;;5019978;28;20510;-94
2022/01/12 07:33:55;;;;;;;220.20;29.15;;;1.70;99.90;;;;;;5036546;28;20092;-95
2022/01/12 07:36:21;;;;;;;307.60;33.22;;;1.40;99.90;;;;;;5019871;28;20133;-94
2022/01/12 07:38:49;;;;;;;234.57;29.55;;;1.50;99.90;;;;;;5019809;28;20111;-94
2022/01/12 07:41:15;;;;;;;290.67;31.42;;;1.40;99.90;;;;;;5022971;28;20053;-96
2022/01/12 07:43:41;;;;;;;259.58;30.50;;;1.30;99.90;;;;;;5023351;28;20508;-94
2022/01/12 07:46:07;;;;;;;224.88;30.05;;;1.40;99.90;;;;;;5019835;28;20053;-94
2022/01/12 07:48:33;;;;;;;141.10;26.13;;;1.20;99.90;;;;;;5019476;28;20095;-93
2022/01/12 07:50:59;;;;;;;174.40;27.08;;;1.10;99.90;;;;;;5020174;28;20140;-94
2022/01/12 07:53:24;;;;;;;160.48;27.90;;;1.20;99.90;;;;;;5019860;28;20111;-94
2022/01/12 07:55:50;;;;;;;204.50;28.35;;;1.10;99.90;;;;;;5036123;28;20049;-95
2022/01/12 07:58:16;;;;;;;264.92;31.38;;;1.10;99.90;;;;;;5019687;28;20053;-95
2022/01/12 08:00:41;;;;;;;174.77;27.65;;;1.20;99.90;;;;;;5035889;28;20107;-94
2022/01/12 08:03:07;;;;;;;313.48;30.75;;;1.20;99.90;;;;;;5019596;28;20147;-95
2022/01/12 08:05:33;;;;;;;205.30;28.50;;;1.60;99.90;;;;;;5019799;28;20045;-94
2022/01/12 08:07:59;;;;;;;231.43;29.42;;;1.20;99.90;;;;;;5019679;28;20061;-94
2022/01/12 08:10:25;;;;;;;343.02;31.63;;;1.20;99.90;;;;;;5019704;28;20412;-94
2022/01/12 08:12:51;;;;;;;254.90;29.63;;;0.80;99.90;;;;;;5020293;28;20061;-94
2022/01/12 08:15:16;;;;;;;291.75;31.67;;;1.20;99.90;;;;;;5019758;28;20057;-94
2022/01/12 08:17:45;;;;;;;173.07;30.05;;;1.40;99.90;;;;;;5019117;28;20503;-95
2022/01/12 08:20:12;;;;;;;234.02;33.05;;;1.20;99.90;;;;;;5018321;28;20512;-94
2022/01/12 08:22:39;;;;;;;281.23;34.45;;;1.20;99.90;;;;;;5018873;28;20106;-94
2022/01/12 08:25:07;;;;;;;135.23;27.77;;;1.60;99.90;;;;;;5019378;28;20374;-95
2022/01/12 08:27:33;;;;;;;249.15;30.15;;;1.30;99.90;;;;;;5019578;28;20045;-93
2022/01/12 08:30:01;;;;;;;153.20;25.77;;;1.30;99.90;;;;;;5019299;28;20111;-94
2022/01/12 08:32:29;;;;;;;209.15;31.17;;;1.80;99.90;;;;;;5019499;28;20502;-94
2022/01/12 08:34:56;;;;;;;235.60;32.30;;;1.80;99.90;;;;;;5035026;28;20057;-94
2022/01/12 08:37:55;;;;;;;306.35;34.65;;;1.60;99.90;;;;;;5035322;28;20088;-94
2022/01/12 08:40:21;;;;;;;290.60;35.85;;;1.90;99.90;;;;;;5018630;28;20128;-93
2022/01/12 08:42:48;;;;;;;273.98;33.20;;;2.10;99.90;;;;;;5018501;28;20092;-93
2022/01/12 08:45:15;;;;;;;210.25;33.65;;;2.30;99.90;;;;;;5018854;28;20426;-94
2022/01/12 08:47:41;;;;;;;271.33;35.83;;;2.90;99.90;;;;;;5035312;28;20089;-94
2022/01/12 08:50:07;;;;;;;366.52;38.65;;;2.70;99.90;;;;;;5018903;28;20061;-94
2022/01/12 08:52:33;;;;;;;277.45;35.25;;;2.90;99.90;;;;;;5018264;28;20049;-94
2022/01/12 08:55:00;;;;;;;295.08;35.85;;;3.00;99.90;;;;;;5018766;28;20475;-95
2022/01/12 08:57:29;;;;;;;163.88;29.30;;;3.40;99.90;;;;;;5018863;28;20141;-93
2022/01/12 09:00:00;;;;;;;232.00;32.78;;;3.30;99.90;;;;;;5018138;28;20046;-94
2022/01/12 09:02:26;;;;;;;192.68;29.42;;;3.40;99.90;;;;;;5018590;28;20060;-93
2022/01/12 09:04:52;;;;;;;177.18;29.38;;;3.50;99.90;;;;;;5034857;28;20081;-94
2022/01/12 09:07:18;;;;;;;202.48;29.23;;;3.70;99.90;;;;;;5018470;28;20150;-94
2022/01/12 09:09:44;;;;;;;160.48;28.88;;;3.70;99.90;;;;;;5018128;28;20444;-94
2022/01/12 09:12:10;;;;;;;141.23;27.15;;;4.20;99.90;;;;;;5018221;28;20053;-93
2022/01/12 09:14:36;;;;;;;165.30;27.65;;;3.90;99.90;;;;;;5033920;28;20490;-95
2022/01/12 09:17:02;;;;;;;173.82;27.77;;;4.00;99.90;;;;;;5018302;28;20111;-92
2022/01/12 09:19:29;;;;;;;115.60;24.55;;;4.10;99.90;;;;;;5017790;28;20046;-95
2022/01/12 09:21:56;;;;;;;112.72;23.92;;;4.20;99.90;;;;;;5018648;28;20058;-94
2022/01/12 09:24:22;;;;;;;123.13;24.40;;;4.30;99.90;;;;;;5018922;28;20072;-94
2022/01/12 09:26:49;;;;;;;147.13;25.45;;;4.30;99.90;;;;;;5035420;28;20049;-95
2022/01/12 09:29:15;;;;;;;131.73;23.90;;;4.40;99.90;;;;;;5018419;28;20052;-94
2022/01/12 09:31:41;;;;;;;137.07;24.50;;;4.40;99.90;;;;;;5017870;28;20406;-93
2022/01/12 09:34:07;;;;;;;111.68;23.73;;;4.40;99.90;;;;;;5035120;28;20045;-93
2022/01/12 09:36:32;;;;;;;108.28;20.88;;;4.40;99.90;;;;;;5018364;28;20053;-95
2022/01/12 09:39:00;;;;;;;126.53;24.05;;;4.50;99.90;;;;;;5034851;28;20188;-95
2022/01/12 09:41:27;;;;;;;114.70;23.60;;;4.70;99.90;;;;;;5034748;28;20061;-94
2022/01/12 09:43:54;;;;;;;99.05;21.73;;;4.60;99.90;;;;;;5018240;28;20064;-94
2022/01/12 09:46:24;;;;;;;103.72;21.30;;;4.60;99.90;;;;;;5018332;28;20079;-93
2022/01/12 09:48:50;;;;;;;98.90;20.77;;;4.70;99.90;;;;;;5034668;28;20061;-94
2022/01/12 09:51:15;;;;;;;129.60;21.40;;;4.80;99.90;;;;;;5017989;28;20479;-95
2022/01/12 09:54:00;;;;;;;92.07;18.42;;;4.90;99.90;;;;;;5018276;28;20111;-94
2022/01/12 09:56:29;;;;;;;95.93;19.38;;;4.90;99.90;;;;;;5034450;28;20060;-94
2022/01/12 09:58:59;;;;;;;115.45;20.73;;;5.10;99.90;;;;;;5034276;28;20123;-95
2022/01/12 10:01:33;;;;;;;92.85;19.02;;;5.20;99.90;;;;;;5034881;28;20390;-94
2022/01/12 10:04:09;;;;;;;91.03;18.30;;;5.20;99.90;;;;;;5017878;28;20060;-95
2022/01/12 10:06:37;;;;;;;91.05;19.08;;;5.30;99.90;;;;;;5034295;28;20046;-95
2022/01/12 10:12:54;;;;;;;90.55;17.95;;;5.50;99.90;;;;;;5034636;28;20393;-95
2022/01/12 10:15:21;;;;;;;87.60;19.65;;;5.60;99.90;;;;;;5017360;28;20147;-94
2022/01/12 10:17:47;;;;;;;89.90;18.95;;;5.60;99.90;;;;;;5033910;28;20410;-93
2022/01/12 10:20:19;;;;;;;66.45;17.45;;;5.70;99.90;;;;;;5017471;28;20052;-93
2022/01/12 10:23:22;;;;;;;76.55;16.58;;;5.90;99.90;;;;;;5033739;28;20068;-93
2022/01/12 10:25:49;;;;;;;96.72;17.52;;;5.80;99.90;;;;;;5017203;28;20208;-93
2022/01/12 10:28:20;;;;;;;72.32;17.90;;;5.90;99.90;;;;;;5017392;28;20049;-93
2022/01/12 10:30:56;;;;;;;66.40;16.58;;;6.00;99.90;;;;;;5033867;28;20057;-95
2022/01/12 10:33:30;;;;;;;68.35;16.95;;;6.10;99.90;;;;;;5017605;28;20049;-92
2022/01/12 10:35:59;;;;;;;74.13;17.98;;;6.00;99.90;;;;;;5017092;28;20188;-93
2022/01/12 10:38:27;;;;;;;64.47;18.23;;;5.90;99.90;;;;;;5017224;28;20045;-93
2022/01/12 10:40:58;;;;;;;85.43;19.88;;;5.80;99.90;;;;;;5019980;28;20533;-92
2022/01/12 10:43:24;;;;;;;;;;;5.90;99.90;;;;;;5033485;28;20132;-93
2022/01/12 10:45:50;;;;;;;68.90;16.73;;;5.70;99.90;;;;;;5050095;28;19960;-93
2022/01/12 10:48:15;;;;;;;69.63;17.73;;;5.80;99.90;;;;;;5033189;28;20061;-94
2022/01/12 10:50:51;;;;;;;73.78;16.92;;;5.90;99.90;;;;;;5017215;28;20045;-90
2022/01/12 10:53:39;;;;;;;79.10;18.65;;;5.90;99.90;;;;;;5034376;28;20053;-93
2022/01/12 10:56:11;;;;;;;87.75;18.20;;;6.00;99.90;;;;;;5017179;28;20418;-94
2022/01/12 10:58:41;;;;;;;72.00;16.92;;;6.00;99.90;;;;;;5033466;28;20046;-94
2022/01/12 11:01:08;;;;;;;72.38;16.27;;;6.00;99.90;;;;;;5033000;28;20549;-93
2022/01/12 11:03:34;;;;;;;73.80;16.27;;;6.00;99.90;;;;;;5016860;28;20057;-92
2022/01/12 11:06:01;;;;;;;66.07;16.17;;;6.10;99.90;;;;;;5017254;28;20048;-93
2022/01/12 11:11:48;;;;;;;72.70;15.88;;;6.20;99.90;;;;;;5033326;28;20471;-93
2022/01/12 11:14:14;;;;;;;78.97;16.75;;;6.20;99.90;;;;;;5016317;28;20197;-93
2022/01/12 11:16:40;;;;;;;71.65;15.90;;;6.40;99.90;;;;;;5032973;28;20140;-93
2022/01/12 11:19:08;;;;;;;69.15;14.80;;;6.10;99.90;;;;;;5032638;28;20483;-93
2022/01/12 11:21:43;;;;;;;70.70;15.32;;;6.20;99.90;;;;;;5016363;28;20136;-93
2022/01/12 11:24:28;;;;;;;62.45;13.73;;;6.00;99.90;;;;;;5034737;28;20092;-93
2022/01/12 11:26:54;;;;;;;52.58;12.75;;;6.00;99.90;;;;;;5017782;28;20084;-93
2022/01/12 11:29:33;;;;;;;57.38;14.88;;;6.00;99.90;;;;;;5017275;28;20049;-93
2022/01/12 11:32:07;;;;;;;69.35;14.82;;;6.00;99.90;;;;;;5033198;28;20056;-91
2022/01/12 11:34:33;;;;;;;63.08;13.90;;;6.00;99.90;;;;;;5032501;28;20454;-92
2022/01/12 11:37:15;;;;;;;56.90;14.05;;;6.00;99.90;;;;;;5016226;28;20049;-92
2022/01/12 11:39:42;;;;;;;60.35;13.63;;;6.00;99.90;;;;;;5032347;28;20081;-92
2022/01/12 11:42:08;;;;;;;59.45;13.90;;;6.10;99.90;;;;;;5016209;28;20060;-92
2022/01/12 11:44:36;;;;;;;58.55;12.55;;;6.20;99.90;;;;;;5017085;28;20053;-93
2022/01/12 11:47:04;;;;;;;59.67;13.60;;;6.30;99.90;;;;;;5016107;28;20057;-92
2022/01/12 11:49:31;;;;;;;61.92;11.90;;;6.20;99.90;;;;;;5015896;28;20402;-92
2022/01/12 11:59:12;;;;;;;62.13;12.00;;;6.30;99.90;;;;;;5037028;28;20048;-92
2022/01/12 12:01:44;;;;;;;60.22;12.35;;;6.30;99.90;;;;;;5034153;28;20061;-92
2022/01/12 12:04:21;;;;;;;65.70;13.05;;;6.30;99.90;;;;;;5019863;28;20057;-92
2022/01/12 12:06:47;;;;;;;58.97;12.48;;;6.40;99.90;;;;;;5019796;28;20087;-93
2022/01/12 12:09:18;;;;;;;63.35;12.60;;;6.50;99.90;;;;;;5036313;28;20053;-92
2022/01/12 12:11:51;;;;;;;58.30;13.73;;;6.20;99.90;;;;;;5020490;28;20466;-93
2022/01/12 12:14:19;;;;;;;44.20;11.93;;;6.10;99.90;;;;;;5036286;28;20483;-92
2022/01/12 12:16:45;;;;;;;56.47;12.13;;;6.00;99.90;;;;;;5019911;28;20053;-94
2022/01/12 12:19:11;;;;;;;68.68;12.60;;;5.90;99.90;;;;;;5019190;28;20099;-94
2022/01/12 12:21:39;;;;;;;45.67;9.68;;;6.20;99.90;;;;;;5019240;28;20089;-92
2022/01/12 12:24:10;;;;;;;55.35;10.60;;;5.80;99.90;;;;;;5020071;28;20052;-92
2022/01/12 12:26:49;;;;;;;63.22;10.98;;;5.80;99.90;;;;;;5019737;28;20474;-96
2022/01/12 12:29:33;;;;;;;50.58;10.75;;;5.90;99.90;;;;;;5019189;28;20088;-93
2022/01/12 12:32:00;;;;;;;48.78;10.80;;;5.90;99.90;;;;;;5019303;28;20456;-90
2022/01/12 12:34:31;;;;;;;46.38;11.73;;;5.90;99.90;;;;;;5035674;28;20093;-91
2022/01/12 12:37:00;;;;;;;62.13;12.35;;;6.00;99.90;;;;;;5018996;28;20054;-91
2022/01/12 12:39:32;;;;;;;47.67;11.43;;;5.90;99.90;;;;;;5035362;28;20180;-93
2022/01/12 12:42:00;;;;;;;39.78;10.05;;;5.70;99.90;;;;;;5019561;28;20095;-92
2022/01/12 12:44:29;;;;;;;49.60;10.85;;;5.70;99.90;;;;;;5035330;28;20054;-92
2022/01/12 12:47:19;;;;;;;47.25;11.65;;;5.70;99.90;;;;;;5019075;28;20119;-92
2022/01/12 12:49:51;;;;;;;31.42;10.02;;;5.60;99.90;;;;;;5018984;28;20050;-91
2022/01/12 12:52:45;;;;;;;41.35;9.13;;;5.80;99.90;;;;;;5035979;28;20380;-92
2022/01/12 12:55:16;;;;;;;38.28;9.48;;;5.60;99.90;;;;;;5037603;28;20068;-95
2022/01/12 12:57:51;;;;;;;45.97;11.07;;;5.60;99.90;;;;;;5024215;28;20060;-93
2022/01/12 13:00:28;;;;;;;44.10;9.98;;;5.60;99.90;;;;;;5035950;28;20056;-92
2022/01/12 13:02:56;;;;;;;34.22;9.05;;;5.60;99.90;;;;;;5019627;28;20061;-93
2022/01/12 13:05:34;;;;;;;46.28;11.05;;;5.50;99.90;;;;;;5018934;28;20052;-91
2022/01/12 13:08:00;;;;;;;32.03;9.95;;;5.60;99.90;;;;;;5018463;28;20045;-94
2022/01/12 13:10:29;;;;;;;47.00;11.07;;;5.40;99.90;;;;;;5018607;28;20060;-92
2022/01/12 13:12:58;;;;;;;39.40;11.50;;;5.50;99.90;;;;;;5018651;28;20398;-92
2022/01/12 13:15:36;;;;;;;38.53;11.40;;;5.40;99.90;;;;;;5035143;28;20057;-92
2022/01/12 13:18:09;;;;;;;49.67;11.52;;;5.40;99.90;;;;;;5018258;28;20050;-91
2022/01/12 13:23:25;;;;;;;57.65;12.48;;;5.30;99.90;;;;;;5034969;28;20084;-94
2022/01/12 13:25:58;;;;;;;57.88;12.32;;;5.50;99.90;;;;;;5034848;28;20065;-93
2022/01/12 13:28:24;;;;;;;56.17;13.15;;;5.30;99.90;;;;;;5034655;28;20136;-91
2022/01/12 13:31:12;;;;;;;58.95;13.38;;;5.20;99.90;;;;;;5018421;28;20473;-92
2022/01/12 13:33:47;;;;;;;66.53;13.77;;;5.20;99.90;;;;;;5035068;28;20395;-92
2022/01/12 13:36:17;;;;;;;50.08;12.75;;;5.20;99.90;;;;;;5018888;28;20061;-91
2022/01/12 13:38:53;;;;;;;52.60;12.88;;;5.30;99.90;;;;;;5018625;28;20415;-92
2022/01/12 13:41:23;;;;;;;57.80;13.75;;;5.30;99.90;;;;;;5017686;28;20045;-92
2022/01/12 13:43:59;;;;;;;57.03;14.30;;;5.40;99.90;;;;;;5018143;28;20053;-92
2022/01/12 13:46:39;;;;;;;53.80;11.88;;;5.40;99.90;;;;;;5034231;28;20052;-92
2022/01/12 13:49:22;;;;;;;49.83;12.37;;;5.30;99.90;;;;;;5018416;28;20414;-92
2022/01/12 13:52:01;;;;;;;53.47;12.65;;;5.60;99.90;;;;;;5017492;28;20056;-95
2022/01/12 13:54:29;;;;;;;56.47;12.45;;;5.30;99.90;;;;;;5017905;28;20518;-92
2022/01/12 13:56:56;;;;;;;59.33;13.50;;;5.30;99.90;;;;;;5018052;28;20580;-92
2022/01/12 13:59:25;;;;;;;54.13;12.90;;;5.20;99.90;;;;;;5017477;28;20092;-93
2022/01/12 14:01:51;;;;;;;54.30;13.38;;;5.20;99.90;;;;;;5018201;28;20061;-92
2022/01/12 14:04:52;;;;;;;58.88;12.65;;;5.20;99.90;;;;;;5024361;28;20057;-91
2022/01/12 14:11:11;;;;;;;56.10;11.60;;;5.20;99.90;;;;;;5034907;28;20088;-94
2022/01/12 14:13:40;;;;;;;55.58;12.13;;;5.10;99.90;;;;;;5018011;28;20403;-91
2022/01/12 14:16:14;;;;;;;57.08;11.85;;;5.10;99.90;;;;;;5018483;28;20049;-93
2022/01/12 14:18:44;;;;;;;55.95;11.95;;;5.20;99.90;;;;;;5017002;28;20061;-93
2022/01/12 14:21:24;;;;;;;315.35;29.30;;;5.10;99.90;;;;;;5017506;28;20466;-92
2022/01/12 14:27:53;;;;;;;56.47;11.20;;;5.10;99.90;;;;;;5034822;28;20262;-93
2022/01/12 14:30:20;;;;;;;63.42;12.25;;;5.10;99.90;;;;;;5017551;28;20049;-93
2022/01/12 14:32:52;;;;;;;58.85;12.35;;;5.10;99.90;;;;;;5019277;28;20053;-92
2022/01/12 14:35:21;;;;;;;938.13;76.70;;;5.30;99.90;;;;;;5033924;28;20099;-92